CW8524 Weather Reports


time (UTC)temp
F
wind
direction
speed
knots
gust
knots
rain 1hr
in
rain 24hr
in
rain mn
in
humidity
%
barometer
mb
20240222101535 38 342 3.5 7.8 0.00 0.00 0.00 66 1012.1
20240222100032 38 347 2.6 8.7 0.00 0.00 0.00 63 1012.0
20240222094530 38 355 3.5 8.7 0.00 0.00 0.00 59 1011.8
20240222093033 38 355 3.5 7.8 0.00 0.00 0.00 52 1011.6
20240222091530 39 331 3.5 8.7 0.00 0.00 0.00 46 1011.6
20240222090016 42 347 5.2 10.4 0.00 0.00 0.00 40 1011.1
20240222084513 42 319 4.3 10.4 0.00 0.00 0.00 37 1010.8
20240222083014 41 292 4.3 8.7 0.00 0.00 0.00 39 1010.0
20240222081507 42 267 5.2 11.3 0.00 0.00 0.00 38 1009.6
20240222080007 42 273 4.3 8.7 0.00 0.00 0.00 37 1009.6
20240222074506 43 280 6.1 10.4 0.00 0.00 0.00 37 1009.5
20240222073005 42 254 3.5 7.8 0.00 0.00 0.00 38 1009.5
20240222071506 42 276 5.2 11.3 0.00 0.00 0.00 39 1009.4
20240222070106 43 259 5.2 8.7 0.00 0.00 0.00 38 1009.5
20240222064603 43 267 6.1 8.7 0.00 0.00 0.00 38 1009.4
20240222063112 45 268 4.3 8.7 0.00 0.00 0.00 35 1009.5
20240222061552 46 280 2.6 7.0 0.00 0.00 0.00 35 1009.7
20240222060049 45 308 3.5 7.0 0.00 0.00 0.00 36 1009.7
20240222054602 47 250 4.3 8.7 0.00 0.00 0.00 35 1009.7
20240222053047 47 259 3.5 11.3 0.00 0.00 0.00 36 1009.9
20240222051547 48 270 3.5 11.3 0.00 0.00 0.00 34 1009.7
20240222050046 47 300 4.3 7.8 0.00 0.00 0.00 36 1009.7
20240222044610 47 267 4.3 8.7 0.00 0.00 0.00 35 1009.8
20240222043048 48 292 5.2 12.2 0.00 0.00 0.00 33 1009.5
20240222041544 49 320 6.1 11.3 0.00 0.00 0.00 32 1009.4
20240222040045 51 306 7.8 13.0 0.00 0.00 0.00 30 1009.2
20240222034543 48 281 6.1 11.3 0.00 0.00 0.00 33 1009.2
20240222033048 47 267 3.5 8.7 0.00 0.00 0.00 35 1009.1
20240222031543 47 315 3.5 8.7 0.00 0.00 0.00 34 1009.2
20240222030042 47 250 6.1 9.6 0.00 0.00 0.00 33 1008.9
20240222024541 48 262 7.0 12.2 0.00 0.00 0.00 31 1008.9
20240222023041 49 273 5.2 8.7 0.00 0.00 0.00 29 1008.7
20240222021641 50 238 2.6 9.6 0.00 0.00 0.00 26 1008.8
20240222020041 52 245 5.2 10.4 0.00 0.00 0.00 24 1008.6
20240222014538 53 267 5.2 11.3 0.00 0.00 0.00 21 1008.5
20240222013037 55 277 5.2 10.4 0.00 0.00 0.00 19 1008.3
20240222011555 58 280 7.0 11.3 0.00 0.00 0.00 17 1008.2
20240222010038 60 252 6.1 14.8 0.00 0.00 0.00 14 1007.7
20240222004536 63 256 12.2 20.9 0.00 0.00 0.00 12 1007.3
20240222003035 64 280 9.6 19.1 0.00 0.00 0.00 12 1007.0
20240222001534 65 212 13.0 21.7 0.00 0.00 0.00 11 1006.9
20240222000034 67 238 12.2 18.2 0.00 0.00 0.00 11 1006.7
20240221234532 68 230 9.6 15.6 0.00 0.00 0.00 13 1006.5
20240221233033 68 221 10.4 19.1 0.00 0.00 0.00 12 1006.5
20240221231534 69 219 11.3 19.1 0.00 0.00 0.00 12 1006.5
20240221230034 68 196 11.3 21.7 0.00 0.00 0.00 13 1006.4
20240221224530 68 202 11.3 26.1 0.00 0.00 0.00 12 1006.3
20240221223031 69 163 13.9 23.5 0.00 0.00 0.00 13 1006.4
20240221221530 69 175 14.8 20.9 0.00 0.00 0.00 12 1006.3
20240221220029 69 185 13.9 21.7 0.00 0.00 0.00 12 1006.2
20240221214527 69 182 12.2 19.1 0.00 0.00 0.00 11 1006.7
20240221213036 67 196 9.6 16.5 0.00 0.00 0.00 12 1006.9
20240221211522 67 211 7.8 16.5 0.00 0.00 0.00 14 1007.6
20240221210019 67 209 9.6 16.5 0.00 0.00 0.00 13 1007.9
20240221204517 67 186 9.6 16.5 0.00 0.00 0.00 13 1008.1
20240221203013 66 192 6.1 16.5 0.00 0.00 0.00 14 1008.5
20240221201512 66 175 7.8 12.2 0.00 0.00 0.00 14 1008.9
20240221200008 66 221 10.4 16.5 0.00 0.00 0.00 14 1009.1
20240221194520 66 230 9.6 17.4 0.00 0.00 0.00 14 1009.3
20240221193007 67 224 9.6 16.5 0.00 0.00 0.00 13 1009.7
20240221191505 67 228 9.6 20.0 0.00 0.00 0.00 13 1009.7
20240221190002 67 216 9.6 17.4 0.00 0.00 0.00 12 1010.2
20240221184606 69 197 13.9 21.7 0.00 0.00 0.00 12 1010.6
20240221183100 69 202 13.0 25.2 0.00 0.00 0.00 11 1011.1
20240221181552 68 229 11.3 22.6 0.00 0.00 0.00 12 1011.6
20240221180121 67 179 11.3 20.0 0.00 0.00 0.00 12 1011.9
20240221174545 67 232 11.3 19.1 0.00 0.00 0.00 12 1012.0
20240221173040 66 238 10.4 17.4 0.00 0.00 0.00 13 1012.2
20240221171537 64 192 7.8 18.2 0.00 0.00 0.00 14 1012.3
20240221170033 61 205 8.7 14.8 0.00 0.00 0.00 18 1012.7
20240221164529 60 225 9.6 14.8 0.00 0.00 0.00 19 1012.9
20240221163025 59 223 7.8 13.9 0.00 0.00 0.00 22 1013.3
20240221161521 58 224 7.0 12.2 0.00 0.00 0.00 21 1013.3
20240221160017 57 265 8.7 13.9 0.00 0.00 0.00 21 1013.4
20240221154513 55 265 7.8 13.0 0.00 0.00 0.00 24 1013.6
20240221153021 53 245 7.0 12.2 0.00 0.00 0.00 26 1013.8
20240221151509 52 244 4.3 7.8 0.00 0.00 0.00 26 1013.7
20240221150006 52 230 4.3 13.0 0.00 0.00 0.00 25 1013.6
20240221144501 49 269 6.1 10.4 0.00 0.00 0.00 27 1013.7
20240221143103 47 234 7.0 12.2 0.00 0.00 0.00 30 1013.6
20240221141555 45 254 5.2 11.3 0.00 0.00 0.00 32 1013.6
20240221140051 44 284 7.0 13.0 0.00 0.00 0.00 33 1013.7
20240221134547 43 267 7.0 11.3 0.00 0.00 0.00 35 1013.7
20240221133046 43 256 5.2 12.2 0.00 0.00 0.00 36 1014.2
20240221131555 44 245 7.0 13.9 0.00 0.00 0.00 34 1014.1
20240221130046 42 220 8.7 15.6 0.00 0.00 0.00 38 1014.1
20240221124543 42 222 8.7 15.6 0.00 0.00 0.00 38 1014.0
20240221123042 42 236 8.7 15.6 0.00 0.00 0.00 38 1014.1
20240221121540 43 244 9.6 15.6 0.00 0.00 0.00 38 1014.2
20240221120039 41 274 8.7 13.0 0.00 0.00 0.00 40 1014.2
20240221114537 43 229 5.2 10.4 0.00 0.00 0.00 38 1014.0
20240221113037 44 225 6.1 11.3 0.00 0.00 0.00 36 1013.9
20240221111542 45 255 8.7 13.9 0.00 0.00 0.00 35 1013.9
20240221110036 46 267 10.4 16.5 0.00 0.00 0.00 35 1014.2
20240221104533 45 258 8.7 13.9 0.00 0.00 0.00 36 1013.9
20240221103041 43 223 7.8 13.0 0.00 0.00 0.00 39 1014.0